In Rescue
 
Open Full Screen Window  High Contrast Mode
Wind Gusting 00 knots
05
September 19, 2019 4:53 PM EDT
Weather Information
Wind Direction
  090 °
Wind Speed
  05 kt (6 mph)
Wind Gust
  00 kt (0 mph)
Altimeter
30.11 in
Visibility
10 SM
Temperature
24° C
75° F
Dewpoint
15° C
59° F
Humidity
57%
1hr Rain Fall
00.00 in.
24hr Rain Fall
00.00 in.
Sky Condition
Clear
VFR

METAR KTTF 192053Z AUTO 09005KT 10SM CLR 24/15 A3011 RMK AO2 T02430149

FAA Disclaimer: The data displayed is for advisory purposes only and is not to be used for flight planning or operations.